Time;durP1;ratioP1;P1;durP2;ratioP2;P2;SDS_P1;SDS_P2;PMS_P1;PMS_P2;Temp;Humidity;BMP_temperature;BMP_pressure;BME280_temperature;BME280_humidity;BME280_pressure;Samples;Min_cycle;Max_cycle;Signal;HPM_P1;HPM_P2
2022/08/24 00:01:23;;;;;;;3.42;1.40;;;21.20;49.60;;;;;;4973293;28;20041;-80
2022/08/24 00:03:48;;;;;;;1.67;1.10;;;21.10;49.80;;;;;;5015981;28;20518;-80
2022/08/24 00:06:18;;;;;;;1.90;1.08;;;21.00;49.90;;;;;;4988961;28;20057;-80
2022/08/24 00:08:44;;;;;;;1.35;1.13;;;21.00;50.20;;;;;;4949874;28;20034;-80
2022/08/24 00:11:10;;;;;;;1.92;1.05;;;21.00;50.20;;;;;;4964172;28;20041;-80
2022/08/24 00:13:37;;;;;;;2.70;1.13;;;20.90;50.50;;;;;;4976452;28;20031;-80
2022/08/24 00:16:03;;;;;;;4.55;1.10;;;20.90;50.60;;;;;;4963755;28;20026;-79
2022/08/24 00:18:29;;;;;;;3.55;1.20;;;20.80;51.30;;;;;;4978005;28;20396;-80
2022/08/24 00:20:54;;;;;;;2.60;1.30;;;20.80;50.90;;;;;;4994785;28;20041;-79
2022/08/24 00:23:20;;;;;;;1.25;0.95;;;20.80;51.10;;;;;;5000700;28;20109;-80
2022/08/24 00:25:45;;;;;;;3.38;1.27;;;20.70;51.00;;;;;;4977108;28;20479;-79
2022/08/24 00:28:11;;;;;;;2.03;1.00;;;20.70;51.20;;;;;;4995794;28;20038;-79
2022/08/24 00:30:37;;;;;;;3.17;1.67;;;20.60;51.40;;;;;;4989166;28;20041;-80
2022/08/24 00:33:02;;;;;;;1.60;1.35;;;20.60;51.40;;;;;;4991342;28;20034;-79
2022/08/24 00:35:28;;;;;;;1.42;1.08;;;20.50;51.60;;;;;;4988831;28;20042;-80
2022/08/24 00:37:53;;;;;;;5.53;1.52;;;20.50;51.70;;;;;;5007030;28;20040;-79
2022/08/24 00:40:33;;;;;;;3.40;1.13;;;20.40;51.90;;;;;;4989942;28;20041;-79
2022/08/24 00:43:03;;;;;;;2.45;1.10;;;20.40;52.20;;;;;;5001857;28;20257;-80
2022/08/24 00:45:55;;;;;;;4.70;1.40;;;20.30;52.00;;;;;;4987066;28;20045;-79
2022/08/24 00:48:23;;;;;;;2.47;1.23;;;20.30;52.10;;;;;;4984200;28;20038;-79
2022/08/24 00:51:16;;;;;;;2.58;1.40;;;20.20;52.30;;;;;;4971218;28;20038;-79
2022/08/24 00:53:44;;;;;;;3.28;1.30;;;20.20;52.90;;;;;;4919348;28;20419;-79
2022/08/24 00:56:31;;;;;;;1.83;1.42;;;20.10;52.40;;;;;;4981702;28;20039;-79
2022/08/24 00:59:02;;;;;;;2.42;1.13;;;20.10;53.00;;;;;;4961192;28;20037;-79
2022/08/24 01:01:28;;;;;;;3.15;1.08;;;20.00;52.80;;;;;;4981441;28;20152;-79
2022/08/24 01:03:54;;;;;;;3.00;1.35;;;20.00;52.90;;;;;;4947859;28;20459;-80
2022/08/24 01:06:19;;;;;;;3.97;1.30;;;20.00;53.00;;;;;;4997766;28;20059;-79
2022/08/24 01:08:45;;;;;;;2.55;1.23;;;19.90;53.20;;;;;;4985771;28;20042;-78
2022/08/24 01:11:13;;;;;;;4.55;1.35;;;19.90;53.20;;;;;;4985419;28;20475;-79
2022/08/24 01:13:41;;;;;;;1.92;0.90;;;19.80;53.40;;;;;;5001288;28;20420;-80
2022/08/24 01:16:06;;;;;;;1.85;1.15;;;19.80;53.50;;;;;;4988013;28;20075;-79
2022/08/24 01:18:51;;;;;;;3.17;1.30;;;19.80;53.60;;;;;;4989286;28;20103;-80
2022/08/24 01:21:22;;;;;;;3.05;0.93;;;19.70;53.70;;;;;;4975331;28;20119;-79
2022/08/24 01:24:01;;;;;;;2.30;1.23;;;19.70;54.00;;;;;;4988234;28;20030;-79
2022/08/24 01:26:38;;;;;;;1.20;1.10;;;19.60;54.30;;;;;;4986375;28;20041;-79
2022/08/24 01:29:25;;;;;;;1.55;1.20;;;19.60;54.20;;;;;;4985818;28;20045;-79
2022/08/24 06:14:06;;;;;;;9.00;2.97;;;17.20;63.70;;;;;;4950971;28;20058;-79
2022/08/24 06:16:41;;;;;;;5.25;2.80;;;17.30;63.60;;;;;;4968834;28;20045;-79
2022/08/24 06:19:07;;;;;;;6.57;3.10;;;17.40;63.00;;;;;;4946981;28;20054;-78
2022/08/24 06:21:33;;;;;;;12.57;3.58;;;17.50;63.40;;;;;;4960103;28;20049;-79
2022/08/24 06:23:59;;;;;;;7.85;3.70;;;17.50;63.50;;;;;;4953765;28;20035;-79
2022/08/24 06:29:09;;;;;;;15.55;3.50;;;17.70;64.00;;;;;;4964691;28;20037;-79
2022/08/24 06:31:39;;;;;;;8.63;2.72;;;17.80;63.90;;;;;;4960815;28;20030;-79
2022/08/24 06:34:05;;;;;;;9.18;2.90;;;17.90;64.30;;;;;;4961533;28;20113;-79
2022/08/24 06:36:31;;;;;;;6.95;3.28;;;18.00;64.00;;;;;;4975009;28;20050;-78
2022/08/24 06:38:56;;;;;;;5.72;2.90;;;18.10;64.20;;;;;;4978689;28;20518;-78
2022/08/24 06:41:22;;;;;;;5.45;2.72;;;18.20;64.20;;;;;;4957704;28;21734;-78
2022/08/24 06:43:48;;;;;;;6.75;2.72;;;18.40;64.30;;;;;;4980147;28;20037;-79
2022/08/24 06:46:13;;;;;;;5.80;2.55;;;18.50;64.20;;;;;;4967346;28;20049;-78
2022/08/24 06:48:39;;;;;;;3.67;2.40;;;18.60;64.00;;;;;;4966288;28;20378;-78
2022/08/24 06:51:11;;;;;;;5.35;2.60;;;18.70;64.00;;;;;;4977311;28;20428;-79
2022/08/24 06:53:37;;;;;;;4.43;2.45;;;18.90;64.10;;;;;;4984896;28;20286;-79
2022/08/24 06:56:03;;;;;;;5.45;2.30;;;19.00;63.70;;;;;;4967601;28;20173;-79
2022/08/24 06:58:28;;;;;;;6.50;2.75;;;19.10;63.60;;;;;;4965539;28;20046;-79
2022/08/24 07:00:58;;;;;;;4.93;2.65;;;19.30;63.50;;;;;;4982254;28;20041;-78
2022/08/24 07:03:23;;;;;;;6.22;2.60;;;19.40;64.30;;;;;;4983923;28;20146;-79
2022/08/24 07:05:54;;;;;;;4.47;2.60;;;19.50;63.10;;;;;;4976830;28;20109;-79
2022/08/24 07:08:19;;;;;;;5.65;2.70;;;19.70;63.80;;;;;;5008463;28;20034;-79
2022/08/24 07:10:45;;;;;;;8.80;2.97;;;19.80;62.70;;;;;;4990102;28;20030;-78
2022/08/24 07:13:12;;;;;;;16.88;3.08;;;20.00;62.50;;;;;;4964526;28;20042;-78
2022/08/24 07:15:38;;;;;;;8.00;2.55;;;20.10;62.40;;;;;;4980609;28;20030;-79
2022/08/24 07:18:08;;;;;;;3.78;2.45;;;20.20;62.00;;;;;;4968418;28;20036;-80
2022/08/24 07:20:34;;;;;;;5.57;2.60;;;20.40;61.90;;;;;;4978870;28;20054;-79
2022/08/24 07:23:00;;;;;;;3.13;2.22;;;20.60;61.70;;;;;;4983251;28;20054;-77
2022/08/24 07:25:25;;;;;;;3.72;2.80;;;20.70;61.50;;;;;;4980991;28;20104;-79
2022/08/24 07:27:51;;;;;;;19.42;2.80;;;20.80;61.20;;;;;;4977985;28;20039;-79
2022/08/24 07:30:16;;;;;;;4.55;2.15;;;20.90;61.10;;;;;;4993735;28;20652;-78
2022/08/24 07:32:42;;;;;;;4.57;2.60;;;21.10;60.80;;;;;;4964683;28;21017;-78
2022/08/24 07:35:08;;;;;;;5.22;2.00;;;21.30;60.60;;;;;;4982388;28;20125;-78
2022/08/24 07:37:33;;;;;;;3.70;1.98;;;21.50;60.30;;;;;;4979751;28;20067;-79
2022/08/24 07:39:59;;;;;;;5.95;2.22;;;21.70;60.00;;;;;;4977212;28;20042;-77
2022/08/24 07:42:24;;;;;;;7.38;2.15;;;21.90;59.80;;;;;;4980186;28;20042;-79
2022/08/24 07:44:50;;;;;;;4.13;2.38;;;22.00;59.50;;;;;;4948282;28;20058;-79
2022/08/24 07:47:16;;;;;;;3.72;2.35;;;22.20;59.30;;;;;;4981433;28;20030;-78
2022/08/24 07:49:41;;;;;;;7.47;2.13;;;22.40;58.90;;;;;;4980065;28;20045;-79
2022/08/24 07:52:09;;;;;;;2.47;2.22;;;22.60;58.70;;;;;;4970883;28;20516;-79
2022/08/24 07:54:35;;;;;;;2.92;2.10;;;22.80;58.40;;;;;;4959394;28;20026;-80
2022/08/24 07:57:02;;;;;;;3.38;1.98;;;23.00;58.10;;;;;;4962993;28;20104;-79
2022/08/24 07:59:28;;;;;;;3.67;2.10;;;23.10;57.80;;;;;;4979939;28;20149;-80
2022/08/24 08:01:54;;;;;;;3.38;2.03;;;23.30;57.50;;;;;;4955062;28;20121;-78
2022/08/24 08:04:23;;;;;;;2.53;2.30;;;23.50;57.30;;;;;;4979282;28;20037;-79
2022/08/24 08:06:48;;;;;;;2.78;2.35;;;23.70;57.10;;;;;;4964000;28;20113;-79
2022/08/24 08:09:14;;;;;;;4.00;2.22;;;23.90;56.70;;;;;;4984120;28;20125;-79
2022/08/24 08:11:39;;;;;;;3.15;2.30;;;24.00;56.40;;;;;;4967407;28;20038;-79
2022/08/24 08:14:05;;;;;;;2.92;2.20;;;24.20;56.20;;;;;;4997380;28;20070;-79
2022/08/24 08:16:30;;;;;;;2.45;1.90;;;24.40;56.00;;;;;;4965240;28;20126;-79
2022/08/24 08:18:56;;;;;;;2.83;1.75;;;24.60;55.60;;;;;;4994698;28;20033;-79
2022/08/24 08:24:15;;;;;;;3.05;1.92;;;25.00;55.00;;;;;;4998551;28;20213;-81
2022/08/24 08:26:43;;;;;;;4.18;2.50;;;25.20;54.70;;;;;;4961411;28;20407;-79
2022/08/24 08:29:11;;;;;;;2.08;1.80;;;25.50;54.40;;;;;;4982543;28;20041;-79
2022/08/24 08:31:37;;;;;;;6.85;2.00;;;25.60;54.00;;;;;;4964291;28;20105;-80
2022/08/24 08:34:02;;;;;;;6.60;2.20;;;25.90;53.80;;;;;;4985371;28;20156;-81
2022/08/24 08:36:28;;;;;;;5.90;2.08;;;26.00;53.40;;;;;;4953464;28;20026;-80
2022/08/24 08:38:54;;;;;;;4.30;1.85;;;26.20;53.10;;;;;;4986601;28;20037;-80
2022/08/24 08:41:49;;;;;;;4.07;2.33;;;26.40;52.70;;;;;;4950818;28;20060;-80
2022/08/24 08:44:32;;;;;;;2.65;2.05;;;26.60;52.30;;;;;;4993054;28;20034;-80
2022/08/24 08:47:32;;;;;;;2.35;1.90;;;26.80;52.20;;;;;;4985028;28;20508;-79
2022/08/24 08:50:04;;;;;;;2.22;2.00;;;27.00;51.70;;;;;;4987377;28;20033;-80
2022/08/24 08:52:41;;;;;;;2.45;2.05;;;27.30;51.50;;;;;;4999340;28;20076;-80
2022/08/24 08:55:48;;;;;;;2.72;1.88;;;27.50;51.00;;;;;;5015376;28;20751;-81
2022/08/24 08:58:38;;;;;;;2.08;1.80;;;27.70;50.70;;;;;;4928599;28;20032;-80
2022/08/24 09:01:14;;;;;;;2.28;2.08;;;27.90;50.20;;;;;;4904557;28;20047;-81
2022/08/24 09:04:11;;;;;;;2.95;1.80;;;28.10;50.10;;;;;;4913889;28;20043;-81
2022/08/24 09:07:01;;;;;;;2.35;1.80;;;28.30;49.50;;;;;;4933946;28;20031;-81
2022/08/24 09:10:04;;;;;;;3.05;1.88;;;28.40;49.10;;;;;;4953105;28;20118;-81
2022/08/24 09:12:32;;;;;;;3.33;1.77;;;28.60;49.00;;;;;;4957050;28;20107;-81
2022/08/24 09:15:22;;;;;;;3.00;1.60;;;28.80;49.00;;;;;;4958391;28;20042;-81
2022/08/24 09:18:06;;;;;;;4.85;1.73;;;28.90;48.60;;;;;;4963939;28;20035;-81
2022/08/24 09:20:46;;;;;;;1.77;1.50;;;29.20;47.90;;;;;;4944620;28;20565;-81
2022/08/24 09:23:29;;;;;;;4.57;1.77;;;29.40;47.80;;;;;;4939278;28;20121;-81
2022/08/24 09:26:03;;;;;;;1.67;1.52;;;29.60;47.30;;;;;;4944529;28;20035;-81
2022/08/24 09:28:43;;;;;;;5.70;1.77;;;29.70;46.90;;;;;;4972935;28;20026;-80
2022/08/24 09:31:08;;;;;;;2.88;1.85;;;29.90;46.60;;;;;;4994522;28;20038;-80
2022/08/24 09:33:50;;;;;;;1.48;1.38;;;30.10;46.50;;;;;;4980755;28;20030;-80
2022/08/24 09:36:39;;;;;;;1.63;1.52;;;30.30;46.00;;;;;;4967302;28;20042;-80
2022/08/24 09:39:33;;;;;;;1.67;1.50;;;30.50;45.30;;;;;;4973736;28;20037;-80
2022/08/24 09:42:16;;;;;;;3.35;1.60;;;30.70;45.50;;;;;;4988697;28;20038;-80
2022/08/24 09:45:09;;;;;;;1.67;1.55;;;30.90;44.80;;;;;;4963365;28;20041;-81
2022/08/24 09:47:39;;;;;;;1.95;1.40;;;31.10;43.80;;;;;;4979098;28;20125;-80
2022/08/24 09:50:18;;;;;;;1.80;1.40;;;31.30;44.20;;;;;;4971741;28;20093;-81
2022/08/24 09:53:14;;;;;;;2.20;1.50;;;31.40;43.70;;;;;;4988691;28;20040;-81
2022/08/24 09:56:26;;;;;;;2.15;1.20;;;31.60;43.00;;;;;;4982632;28;20030;-81
2022/08/24 09:59:00;;;;;;;1.63;1.52;;;31.70;43.00;;;;;;4948417;28;20038;-81
2022/08/24 10:01:48;;;;;;;1.40;1.27;;;31.90;43.00;;;;;;4978042;28;20042;-81
2022/08/24 10:04:20;;;;;;;2.80;1.35;;;32.10;41.90;;;;;;4982862;28;20061;-80
2022/08/24 10:07:21;;;;;;;2.40;1.30;;;32.20;42.20;;;;;;4981519;28;20105;-80
2022/08/24 10:10:00;;;;;;;1.08;0.98;;;32.40;41.30;;;;;;4963960;28;20037;-80
2022/08/24 10:12:33;;;;;;;1.55;1.30;;;32.60;41.70;;;;;;4988697;28;20042;-80
2022/08/24 10:15:04;;;;;;;1.15;1.05;;;32.70;41.00;;;;;;4991908;28;20396;-80
2022/08/24 10:17:55;;;;;;;1.35;1.23;;;32.90;40.50;;;;;;4960187;28;20035;-80
2022/08/24 10:20:24;;;;;;;2.10;1.40;;;33.10;39.60;;;;;;4974222;28;22386;-81
2022/08/24 10:23:27;;;;;;;2.50;1.42;;;33.20;40.00;;;;;;4958549;28;20500;-82
2022/08/24 10:26:01;;;;;;;1.45;1.35;;;33.30;39.00;;;;;;4964932;28;20042;-82
2022/08/24 10:28:57;;;;;;;1.80;1.15;;;33.50;39.20;;;;;;4990583;28;20496;-81
2022/08/24 10:31:29;;;;;;;1.30;1.20;;;33.60;38.20;;;;;;4990442;28;20042;-81
2022/08/24 10:34:08;;;;;;;3.05;1.48;;;33.80;38.70;;;;;;4944895;28;20030;-80
2022/08/24 10:37:07;;;;;;;2.60;1.33;;;33.80;38.40;;;;;;4979088;28;20027;-81
2022/08/24 10:40:03;;;;;;;1.33;1.20;;;33.90;37.10;;;;;;4976689;28;20054;-82
2022/08/24 10:45:51;;;;;;;2.35;1.52;;;34.20;37.20;;;;;;4966655;28;20056;-81
2022/08/24 10:48:45;;;;;;;4.10;1.48;;;34.40;37.20;;;;;;4963795;28;20030;-82
2022/08/24 10:51:38;;;;;;;1.27;1.17;;;34.50;36.10;;;;;;4948605;28;20500;-80
2022/08/24 10:54:05;;;;;;;2.13;1.38;;;34.60;35.80;;;;;;4968508;28;20042;-82
2022/08/24 10:56:30;;;;;;;2.47;1.23;;;34.80;36.20;;;;;;4986166;28;20114;-81
2022/08/24 10:59:17;;;;;;;5.10;1.40;;;34.80;35.70;;;;;;4964451;28;20728;-81
2022/08/24 11:01:59;;;;;;;1.75;1.40;;;34.90;35.50;;;;;;4964957;28;20046;-81
2022/08/24 11:04:27;;;;;;;3.05;1.20;;;35.10;34.40;;;;;;4992288;28;20067;-81
2022/08/24 11:07:04;;;;;;;3.50;1.23;;;35.20;34.90;;;;;;4985345;28;20069;-81
2022/08/24 11:09:44;;;;;;;2.63;1.40;;;35.30;33.80;;;;;;5011644;28;20038;-79
2022/08/24 11:12:36;;;;;;;3.90;1.38;;;35.40;33.50;;;;;;4977643;28;20456;-78
2022/08/24 11:15:17;;;;;;;1.83;1.05;;;35.60;33.40;;;;;;4968090;28;20038;-79
2022/08/24 11:17:52;;;;;;;;;;;35.60;33.00;;;;;;4980167;28;20053;-80
2022/08/24 11:20:48;;;;;;;1.38;1.27;;;35.70;33.90;;;;;;4986037;28;19920;-79
2022/08/24 11:23:24;;;;;;;2.15;1.13;;;35.80;33.10;;;;;;4994696;28;20151;-79
2022/08/24 11:26:05;;;;;;;1.15;1.05;;;35.90;33.40;;;;;;4946320;28;20039;-79
2022/08/24 11:28:45;;;;;;;1.13;1.02;;;36.00;32.60;;;;;;4963975;28;20096;-79
2022/08/24 11:31:13;;;;;;;2.17;1.30;;;36.10;32.20;;;;;;4961933;28;20046;-80
2022/08/24 11:33:48;;;;;;;1.70;1.20;;;36.20;32.70;;;;;;4957635;28;20056;-80
2022/08/24 11:36:18;;;;;;;3.65;1.40;;;36.20;32.10;;;;;;4975459;28;20041;-80
2022/08/24 11:38:45;;;;;;;1.30;1.20;;;36.20;32.00;;;;;;4961929;28;20031;-79
2022/08/24 11:41:23;;;;;;;1.75;1.08;;;36.20;32.40;;;;;;4984910;28;20125;-79
2022/08/24 11:44:03;;;;;;;1.27;1.10;;;36.20;31.70;;;;;;4992423;28;20518;-79
2022/08/24 11:46:36;;;;;;;2.80;1.20;;;36.20;31.40;;;;;;4979589;28;20107;-79
2022/08/24 11:49:20;;;;;;;4.72;1.20;;;36.20;31.60;;;;;;4977577;28;20058;-79
2022/08/24 11:51:58;;;;;;;2.22;1.20;;;36.30;31.70;;;;;;4964309;28;20145;-79
2022/08/24 11:55:03;;;;;;;2.42;1.20;;;36.30;31.50;;;;;;4956654;28;20038;-78
2022/08/24 11:57:34;;;;;;;1.27;1.00;;;36.30;31.20;;;;;;4941652;28;20397;-79
2022/08/24 12:00:08;;;;;;;;;;;36.40;31.50;;;;;;4943963;28;20251;-79
2022/08/24 12:02:47;;;;;;;3.05;1.30;;;36.40;31.50;;;;;;4991439;28;19967;-81
2022/08/24 12:05:27;;;;;;;1.50;1.40;;;36.40;31.60;;;;;;4965312;28;20094;-82
2022/08/24 12:08:11;;;;;;;5.28;1.40;;;36.40;31.30;;;;;;4975821;28;20030;-82
2022/08/24 12:10:43;;;;;;;1.42;1.13;;;36.50;31.30;;;;;;4982546;28;20041;-82
2022/08/24 12:13:44;;;;;;;1.40;1.23;;;36.50;31.40;;;;;;4992609;28;20536;-82
2022/08/24 12:16:20;;;;;;;3.47;1.10;;;36.60;31.10;;;;;;4893911;29;20048;-82
2022/08/24 12:19:16;;;;;;;2.70;1.40;;;36.60;30.70;;;;;;4889639;29;20115;-82
2022/08/24 12:21:44;;;;;;;1.23;1.15;;;36.80;30.40;;;;;;4851221;29;20727;-83
2022/08/24 12:24:20;;;;;;;1.20;1.10;;;36.80;30.70;;;;;;4873782;29;20056;-81
2022/08/24 12:26:54;;;;;;;3.35;1.10;;;36.90;30.20;;;;;;4869475;29;20176;-82
2022/08/24 12:29:19;;;;;;;2.25;1.27;;;37.00;30.10;;;;;;4876700;29;20127;-82
2022/08/24 12:31:58;;;;;;;1.33;1.10;;;37.10;30.40;;;;;;4877343;29;20522;-81
2022/08/24 12:34:30;;;;;;;1.98;1.50;;;37.20;30.00;;;;;;4887990;29;20047;-82
2022/08/24 12:37:03;;;;;;;4.70;1.40;;;37.30;30.10;;;;;;4892207;29;20032;-81
2022/08/24 12:39:35;;;;;;;2.72;1.17;;;37.40;29.80;;;;;;4876774;29;20048;-82
2022/08/24 12:42:28;;;;;;;1.75;1.50;;;37.30;29.80;;;;;;4887648;29;20119;-82
2022/08/24 12:44:56;;;;;;;3.05;1.42;;;37.20;29.30;;;;;;4891484;29;20039;-82
2022/08/24 12:47:28;;;;;;;3.97;1.48;;;37.30;29.80;;;;;;4875788;29;20085;-82
2022/08/24 12:50:06;;;;;;;3.53;1.45;;;37.30;29.60;;;;;;4909847;28;20034;-83
2022/08/24 12:52:42;;;;;;;4.72;1.67;;;37.30;29.50;;;;;;4966419;28;20038;-83
2022/08/24 12:55:40;;;;;;;1.55;1.20;;;37.40;29.50;;;;;;4954719;28;20053;-82
2022/08/24 12:58:36;;;;;;;7.47;1.50;;;37.50;29.30;;;;;;4970353;28;20033;-83
2022/08/24 13:01:02;;;;;;;2.65;1.45;;;37.50;29.10;;;;;;4980535;28;21669;-82
2022/08/24 13:03:33;;;;;;;3.40;1.25;;;37.50;29.40;;;;;;4959230;28;20632;-82
2022/08/24 13:06:10;;;;;;;2.70;1.10;;;37.70;29.30;;;;;;4997287;28;20113;-82
2022/08/24 13:08:41;;;;;;;3.42;1.38;;;37.80;29.10;;;;;;4979964;28;20029;-82
2022/08/24 13:11:11;;;;;;;2.97;1.40;;;37.90;29.10;;;;;;4974948;28;20029;-82
2022/08/24 13:13:47;;;;;;;;;;;37.90;28.80;;;;;;4979802;28;20084;-82
2022/08/24 13:16:46;;;;;;;2.53;1.42;;;37.90;29.00;;;;;;5000150;28;19922;-82
2022/08/24 13:19:37;;;;;;;3.70;1.10;;;38.00;28.40;;;;;;4966394;28;20037;-82
2022/08/24 13:22:08;;;;;;;1.45;1.02;;;38.00;28.80;;;;;;4992247;28;20171;-81
2022/08/24 13:24:34;;;;;;;3.10;1.38;;;38.00;28.70;;;;;;4989849;28;20057;-81
2022/08/24 13:27:12;;;;;;;6.32;1.40;;;38.10;28.80;;;;;;4996002;28;20058;-81
2022/08/24 13:30:00;;;;;;;1.10;0.93;;;38.10;28.40;;;;;;4993883;28;20060;-82
2022/08/24 13:32:48;;;;;;;2.83;1.45;;;38.20;28.00;;;;;;4984864;28;20022;-79
2022/08/24 13:35:40;;;;;;;1.48;1.15;;;38.20;27.80;;;;;;4976379;28;20031;-79
2022/08/24 13:38:33;;;;;;;1.92;0.90;;;38.20;27.70;;;;;;4990144;28;20049;-79
2022/08/24 13:41:07;;;;;;;1.00;0.90;;;38.20;27.60;;;;;;4979980;28;20051;-80
2022/08/24 13:44:16;;;;;;;2.95;0.90;;;38.20;27.40;;;;;;4978244;28;20038;-80
2022/08/24 13:46:47;;;;;;;2.55;1.05;;;38.20;27.10;;;;;;4915096;28;20034;-79
2022/08/24 13:49:25;;;;;;;0.80;0.80;;;38.20;27.40;;;;;;4980447;28;20046;-79
2022/08/24 13:52:23;;;;;;;4.45;1.25;;;38.20;27.20;;;;;;4982725;28;20050;-79
2022/08/24 13:55:12;;;;;;;3.15;0.95;;;38.40;27.30;;;;;;4955593;28;20050;-82
2022/08/24 13:57:43;;;;;;;4.25;1.15;;;38.30;27.10;;;;;;4983467;28;20026;-81
2022/08/24 14:00:12;;;;;;;1.23;1.00;;;38.30;27.20;;;;;;4950894;28;20042;-81
2022/08/24 14:02:43;;;;;;;2.13;1.10;;;38.30;27.20;;;;;;4979572;28;20111;-79
2022/08/24 14:05:27;;;;;;;;;;;38.30;27.10;;;;;;4969271;28;20087;-80
2022/08/24 14:07:58;;;;;;;3.42;1.17;;;38.40;27.30;;;;;;4987992;28;19961;-80
2022/08/24 14:10:39;;;;;;;1.02;1.02;;;38.40;27.40;;;;;;4988937;28;20064;-80
2022/08/24 14:13:07;;;;;;;2.80;0.90;;;38.50;26.80;;;;;;4972881;28;20037;-81
2022/08/24 14:15:44;;;;;;;1.17;0.93;;;38.40;27.00;;;;;;4985261;28;20057;-79
2022/08/24 14:18:32;;;;;;;2.97;0.95;;;38.50;26.70;;;;;;4948890;28;20026;-80
2022/08/24 14:21:02;;;;;;;1.98;0.98;;;38.50;26.70;;;;;;4951821;28;20046;-80
2022/08/24 14:23:46;;;;;;;1.42;0.90;;;38.50;26.60;;;;;;4976760;28;20027;-79
2022/08/24 14:26:42;;;;;;;1.17;0.95;;;38.60;26.50;;;;;;4953584;28;20052;-80
2022/08/24 14:29:14;;;;;;;3.90;1.33;;;38.50;26.30;;;;;;4978049;28;20046;-81
2022/08/24 14:31:41;;;;;;;3.45;1.00;;;38.60;26.50;;;;;;4960091;28;20396;-80
2022/08/24 14:34:22;;;;;;;2.10;0.88;;;38.50;26.50;;;;;;4946863;28;20046;-80
2022/08/24 14:36:55;;;;;;;2.95;0.88;;;38.50;26.30;;;;;;4949627;28;20148;-81
2022/08/24 14:39:28;;;;;;;3.05;1.20;;;38.50;26.40;;;;;;4953015;28;20113;-79
2022/08/24 14:41:59;;;;;;;1.98;1.00;;;38.50;26.20;;;;;;4949738;28;20049;-79
2022/08/24 14:44:48;;;;;;;0.75;0.75;;;38.50;26.20;;;;;;4943788;28;20038;-80
2022/08/24 14:47:25;;;;;;;2.42;0.90;;;38.50;25.50;;;;;;4977663;28;20253;-80
2022/08/24 14:49:51;;;;;;;3.72;1.50;;;38.60;26.10;;;;;;4969468;28;20488;-80
2022/08/24 14:52:31;;;;;;;2.22;1.00;;;38.70;26.10;;;;;;4980164;28;20052;-79
2022/08/24 14:55:06;;;;;;;3.97;0.85;;;38.60;25.70;;;;;;4951257;28;20039;-80
2022/08/24 14:57:59;;;;;;;1.42;1.00;;;38.60;25.60;;;;;;4962826;28;20038;-80
2022/08/24 15:00:44;;;;;;;0.98;0.88;;;38.50;25.40;;;;;;4981506;28;20049;-80
2022/08/24 15:03:47;;;;;;;3.15;1.10;;;38.60;25.70;;;;;;4964974;28;20870;-80
2022/08/24 15:06:22;;;;;;;4.97;1.10;;;38.50;25.40;;;;;;4980615;28;20049;-80
2022/08/24 15:08:47;;;;;;;1.05;0.93;;;38.60;25.50;;;;;;4974482;28;20065;-79
2022/08/24 15:11:17;;;;;;;6.72;1.48;;;38.60;25.60;;;;;;4949522;28;20492;-79
2022/08/24 15:13:52;;;;;;;2.67;1.00;;;38.60;25.70;;;;;;4956622;28;20062;-82
2022/08/24 15:16:26;;;;;;;7.80;1.60;;;38.60;25.50;;;;;;4977159;28;20053;-79
2022/08/24 15:19:03;;;;;;;20.85;1.73;;;38.60;25.60;;;;;;4971499;28;20053;-80
2022/08/24 15:21:41;;;;;;;2.05;1.08;;;38.60;25.60;;;;;;4978121;28;20506;-79
2022/08/24 15:24:26;;;;;;;1.63;0.93;;;38.60;25.70;;;;;;4995986;28;20511;-79
2022/08/24 15:27:02;;;;;;;1.23;0.80;;;38.60;25.50;;;;;;4993973;28;20042;-79
2022/08/24 15:29:30;;;;;;;1.67;0.90;;;38.60;25.50;;;;;;5007104;28;20507;-79
2022/08/24 15:32:07;;;;;;;1.92;1.17;;;38.50;25.50;;;;;;4998267;28;20522;-78
2022/08/24 15:34:41;;;;;;;0.95;0.85;;;38.40;25.40;;;;;;4994036;28;20538;-78
2022/08/24 15:37:07;;;;;;;3.60;1.05;;;38.40;25.40;;;;;;4983412;28;20121;-80
2022/08/24 15:39:33;;;;;;;1.30;0.90;;;38.30;25.50;;;;;;4983733;28;20153;-79
2022/08/24 15:41:58;;;;;;;1.95;0.73;;;38.20;25.50;;;;;;5002209;28;20046;-79
2022/08/24 15:44:26;;;;;;;2.67;1.05;;;38.20;25.40;;;;;;5003897;28;20046;-78
2022/08/24 15:47:01;;;;;;;6.93;1.45;;;38.10;25.40;;;;;;4983018;28;20060;-79
2022/08/24 15:49:32;;;;;;;3.85;1.05;;;38.00;25.30;;;;;;4957570;28;20121;-79
2022/08/24 15:52:01;;;;;;;2.55;1.13;;;38.00;25.40;;;;;;4958817;28;20526;-78
2022/08/24 15:54:33;;;;;;;2.53;0.90;;;38.00;25.50;;;;;;4968637;28;20053;-79
2022/08/24 15:57:10;;;;;;;3.53;0.90;;;37.90;25.50;;;;;;4982579;28;20049;-79
2022/08/24 15:59:38;;;;;;;3.28;1.10;;;37.80;25.50;;;;;;4984532;28;20401;-79
2022/08/24 16:02:25;;;;;;;3.58;1.35;;;37.80;25.60;;;;;;4989792;28;20088;-79
2022/08/24 16:04:57;;;;;;;6.45;1.27;;;37.70;25.50;;;;;;5000838;28;21640;-79
2022/08/24 16:07:24;;;;;;;3.30;0.90;;;37.50;25.70;;;;;;4971191;28;20045;-77
2022/08/24 16:10:00;;;;;;;1.52;1.10;;;37.30;25.80;;;;;;5000214;28;20092;-78
2022/08/24 16:12:27;;;;;;;2.80;1.00;;;37.20;25.90;;;;;;4965233;28;20125;-79
2022/08/24 16:15:06;;;;;;;3.25;1.08;;;37.10;26.00;;;;;;4982025;28;20504;-78
2022/08/24 16:17:47;;;;;;;4.03;1.00;;;36.90;26.00;;;;;;4983911;28;20050;-79
2022/08/24 16:20:29;;;;;;;1.52;1.00;;;36.70;26.00;;;;;;4978104;28;20238;-78
2022/08/24 16:23:01;;;;;;;2.30;1.10;;;36.50;26.10;;;;;;4980704;28;20151;-78
2022/08/24 16:25:31;;;;;;;2.10;1.00;;;36.40;26.20;;;;;;4980810;28;20054;-78
2022/08/24 16:28:07;;;;;;;4.20;1.03;;;36.20;26.30;;;;;;4981536;28;20046;-78
2022/08/24 16:30:39;;;;;;;3.13;1.10;;;36.00;26.40;;;;;;5001191;28;20284;-78
2022/08/24 16:33:05;;;;;;;1.92;1.00;;;35.90;26.50;;;;;;4965666;28;20138;-79
2022/08/24 16:35:31;;;;;;;2.47;1.10;;;35.80;26.60;;;;;;4965870;28;20128;-79
2022/08/24 16:37:57;;;;;;;2.00;1.10;;;35.70;26.70;;;;;;4990352;28;20715;-78
2022/08/24 16:40:22;;;;;;;1.08;0.80;;;35.50;26.70;;;;;;5000426;28;20049;-78
2022/08/24 16:42:48;;;;;;;2.00;1.00;;;35.40;26.80;;;;;;4981307;28;20686;-79
2022/08/24 16:45:17;;;;;;;1.60;0.90;;;35.20;26.90;;;;;;4984131;28;20049;-79
2022/08/24 16:47:43;;;;;;;3.53;1.00;;;35.10;27.60;;;;;;5004405;28;20034;-79
2022/08/24 16:50:08;;;;;;;2.30;1.00;;;35.00;27.10;;;;;;4977289;28;20044;-80
2022/08/24 16:52:34;;;;;;;0.95;0.90;;;34.80;27.20;;;;;;4979558;28;20034;-78
2022/08/24 16:55:00;;;;;;;1.77;1.40;;;34.70;27.30;;;;;;4978249;28;20061;-78
2022/08/24 16:57:30;;;;;;;2.42;1.15;;;34.50;27.40;;;;;;4975162;28;20057;-78
2022/08/24 16:59:55;;;;;;;2.80;0.80;;;34.40;27.50;;;;;;5000161;28;20040;-78
2022/08/24 17:02:21;;;;;;;1.40;1.05;;;34.30;27.60;;;;;;4999747;28;20037;-78
2022/08/24 17:04:47;;;;;;;1.08;0.93;;;34.20;27.80;;;;;;4969029;28;20045;-78
2022/08/24 17:07:19;;;;;;;1.75;1.10;;;34.00;27.80;;;;;;4983529;28;20041;-78
2022/08/24 17:09:45;;;;;;;4.05;1.20;;;33.80;27.90;;;;;;4983284;28;20125;-80
2022/08/24 17:12:10;;;;;;;1.70;1.17;;;33.70;28.00;;;;;;4967314;28;20046;-78
2022/08/24 17:14:38;;;;;;;1.65;1.20;;;33.60;28.10;;;;;;4965869;28;20042;-77
2022/08/24 17:17:11;;;;;;;2.65;1.00;;;33.40;28.10;;;;;;4971003;28;20091;-77
2022/08/24 17:19:37;;;;;;;2.45;1.17;;;33.30;28.30;;;;;;4956712;28;20546;-77
2022/08/24 17:22:04;;;;;;;1.67;1.27;;;33.20;28.50;;;;;;4959343;28;20049;-77
2022/08/24 17:24:30;;;;;;;1.33;1.20;;;33.10;28.60;;;;;;4980321;28;20448;-77
2022/08/24 17:26:56;;;;;;;3.70;0.90;;;33.00;28.60;;;;;;4981830;28;20076;-77
2022/08/24 17:29:21;;;;;;;2.65;1.23;;;32.80;28.70;;;;;;4988196;28;20416;-77
2022/08/24 17:31:50;;;;;;;1.17;0.90;;;32.70;28.80;;;;;;4978655;28;20045;-77
2022/08/24 17:34:19;;;;;;;1.52;1.05;;;32.60;29.00;;;;;;4981674;28;20088;-77
2022/08/24 17:36:44;;;;;;;1.42;1.10;;;32.50;29.20;;;;;;4979962;28;20034;-77
2022/08/24 17:39:10;;;;;;;1.02;1.02;;;32.40;29.30;;;;;;4999038;28;20485;-77
2022/08/24 17:41:36;;;;;;;1.10;1.00;;;32.30;29.40;;;;;;4967891;28;20092;-77
2022/08/24 17:44:02;;;;;;;1.95;0.73;;;32.20;29.50;;;;;;4981710;28;20612;-77
2022/08/24 17:46:27;;;;;;;3.05;0.80;;;32.10;29.60;;;;;;4993317;28;20614;-77
2022/08/24 17:48:53;;;;;;;1.00;0.80;;;32.00;29.70;;;;;;4985185;28;20038;-77
2022/08/24 17:51:19;;;;;;;1.35;1.25;;;31.90;29.80;;;;;;4956182;28;20162;-77
2022/08/24 17:53:44;;;;;;;4.45;0.95;;;31.70;29.90;;;;;;4996513;28;20519;-77
2022/08/24 17:56:12;;;;;;;1.42;1.10;;;31.60;30.00;;;;;;4984945;28;20507;-78
2022/08/24 17:59:18;;;;;;;2.65;0.90;;;31.50;30.20;;;;;;4990097;28;20058;-78
2022/08/24 18:01:23;;;;;;;1.73;0.93;;;31.40;30.30;;;;;;5000165;28;20092;-77
2022/08/24 18:03:49;;;;;;;1.55;1.10;;;31.30;30.50;;;;;;4965572;28;20701;-78
2022/08/24 18:06:15;;;;;;;2.83;1.00;;;31.10;30.60;;;;;;4982537;28;20025;-78
2022/08/24 18:08:41;;;;;;;1.50;0.90;;;31.00;30.80;;;;;;4987774;28;20022;-77
2022/08/24 18:11:06;;;;;;;2.25;1.05;;;30.80;31.00;;;;;;4981302;28;20538;-78
2022/08/24 18:13:32;;;;;;;3.88;1.30;;;30.70;31.30;;;;;;4980989;28;20038;-79
2022/08/24 18:15:57;;;;;;;0.90;0.90;;;30.60;31.40;;;;;;4978177;28;20041;-78